Data for 06/06/2015

Time Sea-Level Adjusted Pressure Absolute Pressure Temperature Relative Humidity Dew Point   
(mb) (inHg) (mb) (inHg) (C) (F) (%) (C) (F)
00:05 1019 30.09 848 25.04 11.6 52.8 71 6.5 43.7
00:10 1019 30.09 848 25.04 11.5 52.6 71 6.4 43.6
00:15 1019 30.09 848 25.04 11.4 52.5 70 6.2 43.2
00:20 1019 30.09 848 25.04 11.4 52.5 71 6.3 43.3
00:25 1019 30.09 848 25.04 11.2 52.2 72 6.5 43.6
00:30 1019 30.09 848 25.04 10.9 51.6 73 6.3 43.4
00:35 1019 30.09 848 25.04 11.1 51.9 73 6.4 43.6
00:40 1019 30.09 848 25.04 11.5 52.7 72 6.6 43.9
00:45 1019 30.09 848 25.04 11.5 52.8 72 6.7 44.1
00:50 1019 30.09 848 25.04 11.3 52.3 73 6.7 44
00:55 1019 30.09 848 25.04 11 51.7 75 6.7 44.1
01:00 1019 30.09 848 25.04 10.6 51 76 6.6 43.8
01:05 1019 30.09 848 25.04 10.6 51.1 75 6.5 43.6
01:10 1019 30.09 848 25.04 10.4 50.7 76 6.4 43.5
01:15 1019 30.09 848 25.04 10.5 50.9 75 6.3 43.4
01:20 1019 30.09 848 25.04 10.5 50.8 76 6.4 43.5
01:25 1019 30.09 848 25.04 10.5 50.9 75 6.3 43.3
01:30 1019 30.09 848 25.04 10.2 50.3 77 6.3 43.3
01:35 1019 30.09 848 25.04 9.8 49.6 78 6.1 43
01:40 1019 30.09 848 25.04 9.7 49.4 76 5.6 42.1
01:45 1019 30.09 849 25.07 10.1 50.3 74 5.8 42.4
01:50 1019 30.09 849 25.07 10.4 50.7 75 6.1 43
01:55 1019 30.09 849 25.07 10.6 51.1 73 6 42.8
02:00 1019 30.09 849 25.07 10.7 51.3 73 6.1 43
02:05 1019 30.09 848 25.04 10.6 51.1 73 6.1 43
02:10 1019 30.09 848 25.04 10.6 51.1 73 6.1 43
02:15 1019 30.09 848 25.04 10.4 50.7 75 6.2 43.2
02:20 1019 30.09 848 25.04 9.9 49.9 77 6.1 43.1
02:25 1019 30.09 848 25.04 9.9 49.7 77 6 42.8
02:30 1019 30.09 848 25.04 10 49.9 77 6.1 42.9
02:35 1019 30.09 848 25.04 10.2 50.3 76 6.1 43
02:40 1019 30.09 849 25.07 10 50 77 6.1 43
02:45 1019 30.09 849 25.07 9.8 49.6 77 6 42.8
02:50 1019 30.09 849 25.07 10 50 76 5.9 42.6
02:55 1019 30.09 848 25.04 10 50 77 6.1 43
03:00 1019 30.09 848 25.04 9.8 49.7 77 6 42.8
03:05 1019 30.09 848 25.04 9.7 49.4 78 6.1 43
03:10 1019 30.09 848 25.04 9.7 49.4 77 5.9 42.5
03:15 1019 30.09 848 25.04 9.8 49.6 76 5.8 42.5
03:20 1019 30.09 848 25.04 9.8 49.7 75 5.6 42
03:25 1019 30.09 848 25.04 10 49.9 75 5.7 42.2
03:30 1019 30.09 848 25.04 9.9 49.8 75 5.7 42.2
03:35 1019 30.09 848 25.04 10.1 50.2 73 5.6 42.1
03:40 1019 30.09 848 25.04 10.1 50.1 75 5.9 42.7
03:45 1019 30.09 849 25.07 9.8 49.7 75 5.7 42.3
03:50 1019 30.09 849 25.07 9.9 49.9 75 5.8 42.4
03:55 1019 30.09 849 25.07 9.6 49.3 77 5.7 42.3
04:00 1019 30.09 849 25.07 9.4 48.9 77 5.6 42.1
04:05 1019 30.09 849 25.07 9.3 48.8 78 5.6 42.1
04:10 1020 30.12 849 25.07 9.2 48.5 78 5.6 42.1
04:15 1019 30.09 849 25.07 9 48.2 79 5.5 42
04:20 1020 30.12 849 25.07 9 48.2 78 5.4 41.7
04:25 1020 30.12 849 25.07 8.8 47.9 80 5.5 41.9
04:30 1019 30.09 849 25.07 8.8 47.8 80 5.5 41.9
04:35 1019 30.09 849 25.07 8.7 47.6 80 5.5 41.9
04:40 1019 30.09 849 25.07 8.6 47.4 81 5.5 41.8
04:45 1020 30.12 849 25.07 8.7 47.6 80 5.5 41.9
04:50 1020 30.12 849 25.07 8.8 47.8 80 5.5 42
04:55 1020 30.12 849 25.07 8.7 47.7 79 5.3 41.6
05:00 1020 30.12 849 25.07 8.9 48 78 5.3 41.5
05:05 1020 30.12 849 25.07 9.2 48.5 77 5.4 41.7
05:10 1020 30.12 849 25.07 9.4 48.8 76 5.4 41.7
05:15 1020 30.12 849 25.07 9.5 49.1 76 5.5 41.9
05:20 1020 30.12 849 25.07 9.5 49.1 76 5.6 42
05:25 1020 30.12 849 25.07 9.4 48.8 77 5.6 42
05:30 1020 30.12 849 25.07 9.2 48.6 78 5.6 42.1
05:35 1020 30.12 849 25.07 9.2 48.5 78 5.6 42.1
05:40 1020 30.12 849 25.07 9.2 48.6 78 5.7 42.2
05:45 1020 30.12 849 25.07 9.4 49 78 5.7 42.3
05:50 1020 30.12 849 25.07 9.8 49.6 76 5.8 42.4
05:55 1020 30.12 849 25.07 10 50 75 5.9 42.6
06:00 1020 30.12 849 25.07 10.4 50.7 74 5.9 42.6
06:05 1020 30.12 849 25.07 10.7 51.3 73 6.2 43.1
06:10 1020 30.12 849 25.07 11.1 52 71 6.1 42.9
06:15 1020 30.12 849 25.07 11.3 52.4 71 6.2 43.2
06:20 1020 30.12 849 25.07 11.6 52.9 69 6.3 43.3
06:25 1020 30.12 849 25.07 11.8 53.2 70 6.5 43.6
06:30 1020 30.12 849 25.07 12 53.5 70 6.6 44
06:35 1020 30.12 849 25.07 12.4 54.2 67 6.4 43.6
06:40 1020 30.12 849 25.07 12.9 55.1 65 6.6 43.8
06:45 1020 30.12 849 25.07 12.8 55.1 67 6.8 44.3
06:50 1020 30.12 849 25.07 13 55.3 65 6.5 43.8
06:55 1020 30.12 849 25.07 13.2 55.7 64 6.6 43.9
07:00 1020 30.12 849 25.07 13.8 56.9 61 6.6 43.9
07:05 1020 30.12 849 25.07 14.7 58.4 58 6.7 44
07:10 1020 30.12 849 25.07 15.3 59.5 57 6.9 44.3
07:15 1020 30.12 849 25.07 15.3 59.5 55 6.5 43.7
07:20 1020 30.12 849 25.07 15.7 60.3 54 6.6 43.8
07:25 1020 30.12 849 25.07 16 60.8 55 7 44.5
07:30 1020 30.12 849 25.07 15.3 59.6 56 6.8 44.2
07:35 1020 30.12 849 25.07 15.7 60.3 54 6.4 43.5
07:40 1020 30.12 849 25.07 16.5 61.6 52 6.7 44.1
07:45 1020 30.12 849 25.07 16.8 62.3 52 7 44.6
07:50 1020 30.12 849 25.07 16.4 61.6 55 7.3 45.2
07:55 1020 30.12 849 25.07 15.8 60.4 56 7.2 45
08:00 1020 30.12 849 25.07 15.6 60.1 56 7 44.6
08:05 1020 30.12 849 25.07 15.8 60.4 58 7.5 45.6
08:10 1020 30.12 850 25.1 15.6 60.1 57 7.2 45
08:15 1020 30.12 850 25.1 16.3 61.3 55 7.4 45.4
08:20 1020 30.12 849 25.07 16.6 61.9 55 7.7 45.8
08:25 1020 30.12 849 25.07 16.4 61.5 56 7.7 45.9
08:30 1020 30.12 849 25.07 16.7 62.1 54 7.6 45.6
08:35 1020 30.12 849 25.07 17.2 63 52 7.3 45.2
08:40 1020 30.12 849 25.07 17.4 63.4 51 7.4 45.3
08:45 1020 30.12 849 25.07 17.4 63.3 53 7.7 45.9
08:50 1020 30.12 849 25.07 17.6 63.6 52 7.8 46.1
08:55 1020 30.12 849 25.07 18 64.4 50 7.6 45.8
09:00 1020 30.12 849 25.07 18.1 64.6 50 7.7 45.9
09:05 1020 30.12 849 25.07 18 64.4 52 8.2 46.8
09:10 1020 30.12 849 25.07 17.3 63.2 52 7.5 45.6
09:15 1020 30.12 849 25.07 17.3 63.2 54 8.1 46.7
09:20 1020 30.12 849 25.07 17.5 63.4 51 7.3 45.2
09:25 1020 30.12 849 25.07 18 64.4 52 8.2 46.8
09:30 1020 30.12 849 25.07 17.9 64.2 52 8 46.4
09:35 1020 30.12 849 25.07 18.4 65.1 51 8.1 46.6
09:40 1020 30.12 849 25.07 19 66.2 49 8.1 46.5
09:45 1020 30.12 849 25.07 19.5 67 48 8.4 47.1
09:50 1020 30.12 849 25.07 19.8 67.7 47 8.5 47.2
09:55 1020 30.12 849 25.07 19.6 67.2 50 8.9 48
10:00 1020 30.12 849 25.07 19.1 66.3 49 8.3 46.9
10:05 1020 30.12 849 25.07 19.6 67.4 46 7.9 46.3
10:10 1020 30.12 849 25.07 20 67.9 46 8 46.4
10:15 1020 30.12 849 25.07 20 68 44 7.5 45.5
10:20 1019 30.09 849 25.07 20.3 68.5 45 8 46.4
10:25 1019 30.09 849 25.07 20.5 68.8 47 8.8 47.9
10:30 1019 30.09 849 25.07 20.3 68.6 45 8.2 46.8
10:35 1019 30.09 849 25.07 20.5 68.8 45 8.2 46.7
10:40 1019 30.09 849 25.07 20.8 69.5 45 8.5 47.2
10:45 1019 30.09 849 25.07 19.9 67.8 47 8.4 47.2
10:50 1019 30.09 849 25.07 19.6 67.3 47 8.2 46.7
10:55 1019 30.09 849 25.07 19.5 67.2 48 8.4 47.1
11:00 1019 30.09 849 25.07 19.6 67.3 46 7.8 46.1
11:05 1019 30.09 848 25.04 20.7 69.2 43 7.7 45.9
11:10 1019 30.09 848 25.04 21.2 70.1 44 8.5 47.3
11:15 1019 30.09 848 25.04 21.4 70.6 43 8.3 47
11:20 1019 30.09 848 25.04 21.3 70.3 43 8.2 46.8
11:25 1019 30.09 848 25.04 21 69.7 44 8.4 47.1
11:30 1019 30.09 848 25.04 21.3 70.3 40 7.2 45
11:35 1019 30.09 848 25.04 21.3 70.4 40 7.5 45.5
11:40 1019 30.09 848 25.04 21.5 70.8 39 7.1 44.8
11:45 1019 30.09 848 25.04 22.2 71.9 38 7.5 45.5
11:50 1019 30.09 848 25.04 22.6 72.8 37 7.2 45
11:55 1019 30.09 848 25.04 22.5 72.5 38 7.5 45.5
12:00 1019 30.09 848 25.04 22.8 73 35 6.9 44.5
12:05 1019 30.09 848 25.04 22.8 73 34 6.3 43.3
12:10 1019 30.09 848 25.04 22.3 72.1 36 6.6 43.8
12:15 1019 30.09 848 25.04 22.5 72.5 35 6.6 43.9
12:20 1019 30.09 848 25.04 22.4 72.3 34 5.9 42.6
12:25 1019 30.09 848 25.04 22.2 71.9 34 5.8 42.4
12:30 1019 30.09 848 25.04 23 73.4 34 6.4 43.4
12:35 1019 30.09 848 25.04 23.3 73.9 36 7.5 45.4
12:40 1019 30.09 848 25.04 23.4 74.2 34 6.9 44.4
12:45 1018 30.06 848 25.04 23.4 74.2 35 7.2 45
12:50 1018 30.06 848 25.04 23.3 73.9 34 6.7 44
12:55 1018 30.06 848 25.04 23.2 73.8 33 6.3 43.3
13:00 1019 30.09 848 25.04 22.5 72.5 36 6.9 44.3
13:05 1018 30.06 848 25.04 22.5 72.5 35 6.6 43.8
13:10 1018 30.06 848 25.04 22.9 73.2 35 6.7 44
13:15 1018 30.06 848 25.04 23.1 73.5 35 6.9 44.5
13:20 1018 30.06 848 25.04 22.9 73.1 37 7.6 45.7
13:25 1018 30.06 847 25.01 22.7 72.9 37 7.4 45.4
13:30 1018 30.06 847 25.01 23.2 73.8 36 7.6 45.6
13:35 1018 30.06 847 25.01 23.9 75 34 7.4 45.3
13:40 1018 30.06 847 25.01 23.5 74.4 35 7.6 45.6
13:45 1018 30.06 847 25.01 22.7 72.9 37 7.4 45.3
13:50 1018 30.06 847 25.01 22.7 72.9 37 7.4 45.4
13:55 1018 30.06 847 25.01 23.7 74.7 33 6.7 44.1
14:00 1018 30.06 847 25.01 24.3 75.8 34 7.8 46
14:05 1018 30.06 847 25.01 23.9 75 33 6.8 44.2
14:10 1018 30.06 847 25.01 24.2 75.6 34 7.6 45.6
14:15 1018 30.06 847 25.01 23.9 75 32 6.5 43.6
14:20 1018 30.06 847 25.01 23.9 75.1 34 7.2 45
14:25 1018 30.06 847 25.01 23.9 75 33 6.7 44
14:30 1018 30.06 847 25.01 24.2 75.5 34 7.4 45.3
14:35 1018 30.06 847 25.01 24.5 76.2 34 7.8 46
14:40 1018 30.06 847 25.01 24.9 76.8 32 7.2 45
14:45 1018 30.06 847 25.01 24 75.2 35 7.7 45.8
14:50 1018 30.06 847 25.01 24.1 75.5 33 7 44.5
14:55 1018 30.06 847 25.01 24.5 76.2 33 7.4 45.4
15:00 1018 30.06 847 25.01 23.7 74.6 34 7.1 44.8
15:05 1018 30.06 847 25.01 23.7 74.7 33 6.5 43.7
15:10 1018 30.06 847 25.01 23.2 73.8 34 6.7 44.1
15:15 1018 30.06 847 25.01 22.1 71.7 37 6.9 44.4
15:20 1018 30.06 847 25.01 22.2 72 35 6.1 43
15:25 1018 30.06 847 25.01 21.9 71.3 35 6 42.7
15:30 1018 30.06 847 25.01 22.5 72.5 33 5.7 42.3
15:35 1018 30.06 847 25.01 24.1 75.3 30 5.6 42
15:40 1018 30.06 847 25.01 23.3 73.9 32 6 42.7
15:45 1018 30.06 847 25.01 23.6 74.5 30 5.3 41.5
15:50 1018 30.06 847 25.01 24.7 76.4 28 5.1 41.2
15:55 1017 30.03 847 25.01 24.2 75.6 29 5.1 41.2
16:00 1017 30.03 847 25.01 23.4 74.2 31 5.5 41.9
16:05 1017 30.03 847 25.01 23.2 73.7 30 4.6 40.4
16:10 1017 30.03 847 25.01 23.3 73.9 30 4.9 40.9
16:15 1017 30.03 846 24.98 23.4 74 28 4.2 39.5
16:20 1017 30.03 846 24.98 23.3 73.9 30 5.2 41.3
16:25 1017 30.03 846 24.98 23.3 73.9 28 4.1 39.3
16:30 1017 30.03 846 24.98 23 73.5 29 4.2 39.6
16:35 1017 30.03 846 24.98 22.9 73.2 29 4.2 39.5
16:40 1017 30.03 846 24.98 23 73.4 29 4.4 39.9
16:45 1017 30.03 846 24.98 22.9 73.2 30 4.7 40.4
16:50 1017 30.03 847 25.01 23.1 73.7 29 4.1 39.5
16:55 1017 30.03 847 25.01 23.6 74.5 28 4.3 39.8
17:00 1017 30.03 847 25.01 23.3 74 29 4.5 40
17:05 1017 30.03 847 25.01 23 73.4 29 4.4 39.9
17:10 1017 30.03 846 24.98 23 73.4 30 4.6 40.3
17:15 1017 30.03 846 24.98 23 73.3 30 4.5 40.1
17:20 1017 30.03 846 24.98 22.9 73.2 28 3.9 39
17:25 1017 30.03 846 24.98 23 73.5 28 3.8 38.9
17:30 1017 30.03 846 24.98 23.2 73.8 27 3.7 38.6
17:35 1017 30.03 846 24.98 23.7 74.6 26 3.1 37.5
17:40 1017 30.03 846 24.98 23.9 75.1 27 3.8 38.9
17:45 1017 30.03 846 24.98 24.4 75.8 25 3.5 38.3
17:50 1017 30.03 846 24.98 24.3 75.8 27 4.6 40.3
17:55 1017 30.03 846 24.98 23.8 74.8 27 3.8 38.8
18:00 1017 30.03 846 24.98 24.1 75.4 27 4.1 39.4
18:05 1017 30.03 846 24.98 23.8 74.8 29 4.9 40.9
18:10 1017 30.03 846 24.98 23.1 73.6 29 4.4 39.9
18:15 1017 30.03 846 24.98 23.1 73.5 30 4.7 40.4
18:20 1017 30.03 846 24.98 22.8 73.1 30 4.5 40
18:25 1017 30.03 846 24.98 22.6 72.7 31 5 41
18:30 1017 30.03 846 24.98 22.3 72.2 31 4.5 40
18:35 1017 30.03 846 24.98 22.3 72.1 33 5.3 41.6
18:40 1017 30.03 846 24.98 22.3 72.1 31 4.7 40.5
18:45 1017 30.03 846 24.98 22.2 72 31 4.4 40
18:50 1017 30.03 846 24.98 22 71.6 33 5.1 41.1
18:55 1017 30.03 846 24.98 22 71.5 33 5.1 41.2
19:00 1017 30.03 846 24.98 22.3 72.2 31 4.7 40.4
19:05 1017 30.03 846 24.98 22.1 71.8 33 5.4 41.7
19:10 1017 30.03 846 24.98 21.8 71.3 34 5.5 41.9
19:15 1017 30.03 846 24.98 21.7 71.1 33 4.8 40.6
19:20 1017 30.03 847 25.01 21.6 70.8 34 5.3 41.5
19:25 1017 30.03 847 25.01 21.5 70.7 34 5.2 41.3
19:30 1017 30.03 847 25.01 21.4 70.6 34 5.2 41.4
19:35 1017 30.03 847 25.01 21.3 70.3 34 5.2 41.3
19:40 1017 30.03 847 25.01 21.2 70.2 36 5.9 42.6
19:45 1017 30.03 847 25.01 21.1 70 35 5.2 41.3
19:50 1017 30.03 847 25.01 21 69.9 36 5.5 41.9
19:55 1017 30.03 847 25.01 20.9 69.7 36 5.6 42
20:00 1017 30.03 847 25.01 20.8 69.5 36 5.5 41.8
20:05 1017 30.03 847 25.01 20.7 69.2 37 5.7 42.3
20:10 1018 30.06 847 25.01 20.5 68.9 40 6.6 43.8
20:15 1018 30.06 847 25.01 20.2 68.3 43 7.5 45.5
20:20 1018 30.06 847 25.01 19.6 67.3 48 8.3 47
20:25 1018 30.06 847 25.01 19.1 66.3 50 8.4 47.2
20:30 1018 30.06 847 25.01 18.5 65.3 49 7.8 46.1
20:35 1018 30.06 847 25.01 17.9 64.1 54 8.5 47.2
20:40 1018 30.06 847 25.01 17.5 63.5 52 7.5 45.6
20:45 1018 30.06 847 25.01 17.6 63.6 53 8 46.5
20:50 1018 30.06 847 25.01 17.4 63.3 53 7.8 46
20:55 1018 30.06 847 25.01 17.2 62.9 54 7.9 46.1
21:00 1018 30.06 847 25.01 16.8 62.3 54 7.6 45.8
21:05 1018 30.06 847 25.01 16.5 61.7 55 7.5 45.5
21:10 1018 30.06 847 25.01 16.4 61.5 53 7 44.5
21:15 1018 30.06 847 25.01 16.3 61.3 55 7.3 45.1
21:20 1018 30.06 847 25.01 16.1 60.9 56 7.3 45.2
21:25 1018 30.06 847 25.01 15.5 60 58 7.3 45.2
21:30 1018 30.06 847 25.01 15 59 59 7.2 44.9
21:35 1018 30.06 847 25.01 14.8 58.7 60 7.1 44.8
21:40 1018 30.06 847 25.01 14.9 58.8 60 7.3 45.1
21:45 1018 30.06 847 25.01 14.9 58.8 60 7.4 45.3
21:50 1018 30.06 847 25.01 14.8 58.6 61 7.4 45.3
21:55 1018 30.06 847 25.01 14.5 58 62 7.3 45.1
22:00 1018 30.06 847 25.01 14.1 57.3 62 7 44.5
22:05 1018 30.06 847 25.01 14.2 57.5 61 6.9 44.4
22:10 1018 30.06 847 25.01 14.3 57.8 60 6.8 44.3
22:15 1018 30.06 847 25.01 14.5 58.1 60 6.8 44.3
22:20 1018 30.06 847 25.01 14.6 58.3 60 7 44.6
22:25 1018 30.06 848 25.04 14.6 58.2 60 7.1 44.7
22:30 1018 30.06 847 25.01 14.5 58 61 7.1 44.8
22:35 1018 30.06 848 25.04 14.3 57.8 62 7.2 44.9
22:40 1018 30.06 848 25.04 14.3 57.7 62 7.2 44.9
22:45 1018 30.06 848 25.04 14.1 57.4 62 6.9 44.4
22:50 1018 30.06 848 25.04 14.4 58 60 6.8 44.3
22:55 1018 30.06 847 25.01 14.7 58.4 60 7 44.5
23:00 1018 30.06 847 25.01 14.7 58.5 59 6.9 44.5
23:05 1018 30.06 847 25.01 14.5 58.2 60 6.9 44.4
23:10 1018 30.06 847 25.01 14.4 57.9 61 7.1 44.7
23:15 1018 30.06 847 25.01 14.3 57.8 61 7 44.6
23:20 1018 30.06 847 25.01 14.3 57.7 61 7 44.6
23:25 1018 30.06 847 25.01 14.1 57.4 60 6.5 43.7
23:30 1018 30.06 848 25.04 14.6 58.3 58 6.7 44
23:35 1018 30.06 848 25.04 14.5 58.1 59 6.7 44.1
23:40 1018 30.06 848 25.04 14.5 58 58 6.3 43.3
23:45 1018 30.06 848 25.04 15.2 59.3 54 6.1 43
23:50 1018 30.06 848 25.04 15.7 60.3 53 6.3 43.3
23:55 1018 30.06 848 25.04 16 60.7 53 6.4 43.5
24:00 1018 30.06 848 25.04 16.2 61.1 52 6.3 43.3